Andersonburg, Pennsylvania
Current Conditions -  °F | °C
As of 8:56 PM on Wednesday 22 Oct 2014 (Local Time) from KCXY Reporting Station
Overcast Overcast  
Wind Chill: 54°   Ceiling: 2800
Heat Index: 54°   Visibility: 10mi
Dew Point: 42°   Wind: 15mph
Humidity: 64%   Direction: 330°NNW
Pressure: 29.98"   Gusts: 23mph
Location:  40.3674°N, 77.4381°W
Report Text: KCXY 230056Z AUTO 33013G20KT 10SM OVC028 12/06 A2998 RMK AO2 SLP153 T01220056
Loading
Personal Weather Stations






























Interactive Weather Map New forecast layout! Learn more

10-Day Weather Forecast

Advertisements
Track Severe Weather on mobile